DGAA

Kotoka International Airport

Accra, Ghana
METAR DGAA 140000Z 28005KT CAVOK 27/24 Q1014 NOSIG
Observed Flight Rules
Dec-14 @ 00:00 UTC (45 minutes ago) Visual Flight Rules
Wind Visibility Clouds
280° at 5 knots 10,000+ meters
  • Clear skies
Temperatures Readings
Current 27°C / 81°F
Dewpoint 24°C / 75°F
Humidity 84%
Altimeter 29.94" Hg
Pressure 1014 hPa
Elevation 69
METAR DGAA 140000Z 28005KT CAVOK 27/24 Q1014 NOSIG
Observed Flight Rules
Dec-14 @ 00:00 UTC
(45 minutes ago)
VFR
Wind Visibility
280° at 5 knots 10,000+ meters
Clouds
  • Clear skies
Temperature Dewpoint
27°C / 81°F 24°C / 75°F
Humidity Altimeter Pressure
84% 29.94" Hg 1014 hPa